createdAt,value
2019-02-27T00:00:34.399Z,0.00
2019-02-27T00:01:34.375Z,0.00
2019-02-27T00:02:34.370Z,0.00
2019-02-27T00:03:34.355Z,0.00
2019-02-27T00:04:35.551Z,0.00
2019-02-27T00:05:34.346Z,0.00
2019-02-27T00:06:34.321Z,0.00
2019-02-27T00:07:34.315Z,0.00
2019-02-27T00:08:34.304Z,0.00
2019-02-27T00:09:34.289Z,0.00
2019-02-27T00:10:34.293Z,0.00
2019-02-27T00:11:34.267Z,0.00
2019-02-27T00:12:34.257Z,0.00
2019-02-27T00:13:34.245Z,0.00
2019-02-27T00:14:34.237Z,0.00
2019-02-27T00:15:37.799Z,0.00
2019-02-27T00:16:34.214Z,0.00
2019-02-27T00:17:34.206Z,0.00
2019-02-27T00:18:34.194Z,0.00
2019-02-27T00:19:34.184Z,0.00
2019-02-27T00:20:36.679Z,0.00
2019-02-27T00:21:34.179Z,0.00
2019-02-27T00:22:34.154Z,0.00
2019-02-27T00:23:34.140Z,0.00
2019-02-27T00:24:34.130Z,0.00
2019-02-27T00:25:36.092Z,0.00
2019-02-27T00:26:34.133Z,0.00
2019-02-27T00:27:34.106Z,0.00
2019-02-27T00:28:34.096Z,0.00
2019-02-27T00:29:34.081Z,0.00
2019-02-27T00:30:37.905Z,0.00
2019-02-27T00:31:34.067Z,0.00
2019-02-27T00:32:34.048Z,0.00
2019-02-27T00:33:34.064Z,0.00
2019-02-27T00:34:34.025Z,0.00
2019-02-27T00:35:34.022Z,0.00
2019-02-27T00:36:34.019Z,0.00
2019-02-27T00:37:33.992Z,0.00
2019-02-27T00:38:33.982Z,0.00
2019-02-27T00:39:33.979Z,0.00
2019-02-27T00:40:38.547Z,0.00
2019-02-27T00:41:34.961Z,0.00
2019-02-27T00:42:34.008Z,0.00
2019-02-27T00:43:33.930Z,0.00
2019-02-27T00:44:34.775Z,0.00
2019-02-27T00:45:33.945Z,0.00
2019-02-27T00:46:33.914Z,0.00
2019-02-27T00:47:33.888Z,0.00
2019-02-27T00:48:33.878Z,0.00
2019-02-27T00:49:33.869Z,0.00
2019-02-27T00:50:33.857Z,0.00
2019-02-27T00:51:33.896Z,0.00
2019-02-27T00:52:33.837Z,0.00
2019-02-27T00:53:33.832Z,0.00
2019-02-27T00:54:33.812Z,0.00
2019-02-27T00:55:38.534Z,0.00
2019-02-27T00:56:34.812Z,0.00
2019-02-27T00:57:33.780Z,0.00
2019-02-27T00:58:33.771Z,0.00
2019-02-27T00:59:33.765Z,0.00
2019-02-27T01:00:33.748Z,0.00
2019-02-27T01:01:33.750Z,0.00
2019-02-27T01:02:33.728Z,0.00
2019-02-27T01:03:33.717Z,0.00
2019-02-27T01:04:35.105Z,0.00
2019-02-27T01:05:33.695Z,0.00
2019-02-27T01:06:33.695Z,0.00
2019-02-27T01:07:33.676Z,0.00
2019-02-27T01:08:33.665Z,0.00
2019-02-27T01:09:33.654Z,0.00
2019-02-27T01:10:33.697Z,0.00
2019-02-27T01:11:33.646Z,0.00
2019-02-27T01:12:33.623Z,0.00
2019-02-27T01:13:33.613Z,0.00
2019-02-27T01:14:36.921Z,0.00
2019-02-27T01:15:33.592Z,0.00
2019-02-27T01:16:33.596Z,0.00
2019-02-27T01:17:33.571Z,0.00
2019-02-27T01:18:33.560Z,0.00
2019-02-27T01:19:38.281Z,0.00
2019-02-27T01:20:34.543Z,0.00
2019-02-27T01:21:33.560Z,0.00
2019-02-27T01:22:33.517Z,0.00
2019-02-27T01:23:33.509Z,0.00
2019-02-27T01:24:33.496Z,0.00
2019-02-27T01:25:33.488Z,0.00
2019-02-27T01:26:33.487Z,0.00
2019-02-27T01:27:37.939Z,0.00
2019-02-27T01:28:34.452Z,0.00
2019-02-27T01:29:33.445Z,0.00
2019-02-27T01:30:33.441Z,0.00
2019-02-27T01:31:33.433Z,0.00
2019-02-27T01:32:33.411Z,0.00
2019-02-27T01:33:37.901Z,0.00
2019-02-27T01:34:33.394Z,0.00
2019-02-27T01:35:33.383Z,0.00
2019-02-27T01:36:33.390Z,0.00
2019-02-27T01:37:33.359Z,0.00
2019-02-27T01:38:37.613Z,0.00
2019-02-27T01:39:33.337Z,0.00
2019-02-27T01:40:33.330Z,0.00
2019-02-27T01:41:33.317Z,0.00
2019-02-27T01:42:33.318Z,0.00
2019-02-27T01:43:33.300Z,0.00
2019-02-27T01:44:33.295Z,0.00
2019-02-27T01:45:33.281Z,0.00
2019-02-27T01:46:33.264Z,0.00
2019-02-27T01:47:35.685Z,0.00
2019-02-27T01:48:33.243Z,0.00
2019-02-27T01:49:33.234Z,0.00
2019-02-27T01:50:33.232Z,0.00
2019-02-27T01:51:33.217Z,0.00
2019-02-27T01:52:34.095Z,0.00
2019-02-27T01:53:33.195Z,0.00
2019-02-27T01:54:33.182Z,0.00
2019-02-27T01:55:33.174Z,0.00
2019-02-27T01:56:33.169Z,0.00
2019-02-27T01:57:34.145Z,0.00
2019-02-27T01:58:33.148Z,0.00
2019-02-27T01:59:33.128Z,0.00
2019-02-27T02:00:33.121Z,0.00
2019-02-27T02:01:33.113Z,0.00
2019-02-27T02:02:34.919Z,0.00
2019-02-27T02:03:33.088Z,0.00
2019-02-27T02:04:33.081Z,0.00
2019-02-27T02:05:33.066Z,0.00
2019-02-27T02:06:33.083Z,0.00
2019-02-27T02:07:33.058Z,0.00
2019-02-27T02:08:33.039Z,0.00
2019-02-27T02:09:33.027Z,0.00
2019-02-27T02:10:33.020Z,0.00
2019-02-27T02:11:35.024Z,0.00
2019-02-27T02:12:33.014Z,0.00
2019-02-27T02:13:32.987Z,0.00
2019-02-27T02:14:32.973Z,0.00
2019-02-27T02:15:32.965Z,0.00
2019-02-27T02:16:34.386Z,0.00
2019-02-27T02:17:32.955Z,0.00
2019-02-27T02:18:32.935Z,0.00
2019-02-27T02:19:32.922Z,0.00
2019-02-27T02:20:32.960Z,0.00
2019-02-27T02:21:34.316Z,0.00
2019-02-27T02:22:32.903Z,0.00
2019-02-27T02:23:32.881Z,0.00
2019-02-27T02:24:32.870Z,0.00
2019-02-27T02:25:32.858Z,0.00
2019-02-27T02:26:35.004Z,0.00
2019-02-27T02:27:32.849Z,0.00
2019-02-27T02:28:32.835Z,0.00
2019-02-27T02:29:32.832Z,0.00
2019-02-27T02:30:32.813Z,0.00
2019-02-27T02:31:32.801Z,0.00
2019-02-27T02:32:32.801Z,0.00
2019-02-27T02:33:32.777Z,0.00
2019-02-27T02:34:32.771Z,0.00
2019-02-27T02:35:32.757Z,0.00
2019-02-27T02:36:32.747Z,0.00
2019-02-27T02:37:33.708Z,0.00
2019-02-27T02:38:32.733Z,0.00
2019-02-27T02:39:32.715Z,0.00
2019-02-27T02:40:32.706Z,0.00
2019-02-27T02:41:32.694Z,0.00
2019-02-27T02:42:32.724Z,0.00
2019-02-27T02:43:32.677Z,0.00
2019-02-27T02:44:32.675Z,0.00
2019-02-27T02:45:33.715Z,0.00
2019-02-27T02:46:32.644Z,0.00
2019-02-27T02:47:32.641Z,0.00
2019-02-27T02:48:32.634Z,0.00
2019-02-27T02:49:32.611Z,0.00
2019-02-27T02:50:32.629Z,0.00
2019-02-27T02:51:32.592Z,0.00
2019-02-27T02:52:32.586Z,0.00
2019-02-27T02:53:32.584Z,0.00
2019-02-27T02:54:36.440Z,0.00
2019-02-27T02:55:32.547Z,0.00
2019-02-27T02:56:32.539Z,0.00
2019-02-27T02:57:35.874Z,0.00
2019-02-27T02:58:32.535Z,0.00
2019-02-27T02:59:32.506Z,0.00
2019-02-27T03:00:37.870Z,0.00
2019-02-27T03:01:33.486Z,0.00
2019-02-27T03:02:32.473Z,0.00
2019-02-27T03:03:36.131Z,0.00
2019-02-27T03:04:32.457Z,0.00
2019-02-27T03:05:32.445Z,0.00
2019-02-27T03:06:35.078Z,0.00
2019-02-27T03:07:32.425Z,0.00
2019-02-27T03:08:32.435Z,0.00
2019-02-27T03:09:32.435Z,0.00
2019-02-27T03:10:32.399Z,0.00
2019-02-27T03:11:32.387Z,0.00
2019-02-27T03:12:32.370Z,0.00
2019-02-27T03:13:32.433Z,0.00
2019-02-27T03:14:32.350Z,0.00
2019-02-27T03:15:32.348Z,0.00
2019-02-27T03:16:32.331Z,0.00
2019-02-27T03:17:32.328Z,0.00
2019-02-27T03:18:32.319Z,0.00
2019-02-27T03:19:32.328Z,0.00
2019-02-27T03:20:32.292Z,0.00
2019-02-27T03:21:32.282Z,0.00
2019-02-27T03:22:32.269Z,0.00
2019-02-27T03:23:32.287Z,0.00
2019-02-27T03:24:32.245Z,0.00
2019-02-27T03:25:32.238Z,0.00
2019-02-27T03:26:32.225Z,0.00
2019-02-27T03:27:32.221Z,0.00
2019-02-27T03:28:32.220Z,0.00
2019-02-27T03:29:32.205Z,0.00
2019-02-27T03:30:36.170Z,0.00
2019-02-27T03:31:32.177Z,0.00
2019-02-27T03:32:41.115Z,0.00
2019-02-27T03:33:33.171Z,0.00
2019-02-27T03:34:32.158Z,0.00
2019-02-27T03:35:32.146Z,0.00
2019-02-27T03:36:32.136Z,0.00
2019-02-27T03:37:32.113Z,0.00
2019-02-27T03:38:32.136Z,0.00
2019-02-27T03:39:35.020Z,0.00
2019-02-27T03:40:32.082Z,0.00
2019-02-27T03:41:32.101Z,0.00
2019-02-27T03:42:34.227Z,0.00
2019-02-27T03:43:32.055Z,0.00
2019-02-27T03:44:32.049Z,0.00
2019-02-27T03:45:32.027Z,0.00
2019-02-27T03:46:32.030Z,0.00
2019-02-27T03:47:32.007Z,0.00
2019-02-27T03:48:31.999Z,0.00
2019-02-27T03:49:32.000Z,0.00
2019-02-27T03:50:31.980Z,0.00
2019-02-27T03:51:31.969Z,0.00
2019-02-27T03:52:36.092Z,0.00
2019-02-27T03:53:32.951Z,0.00
2019-02-27T03:54:31.946Z,0.00
2019-02-27T03:55:33.099Z,0.00
2019-02-27T03:56:31.914Z,0.00
2019-02-27T03:57:31.906Z,0.00
2019-02-27T03:58:31.907Z,0.00
2019-02-27T03:59:31.916Z,0.00
2019-02-27T04:00:31.883Z,0.00
2019-02-27T04:01:31.864Z,0.00
2019-02-27T04:02:31.866Z,0.00
2019-02-27T04:03:31.843Z,0.00
2019-02-27T04:04:31.857Z,0.00
2019-02-27T04:05:31.822Z,0.00
2019-02-27T04:06:31.833Z,0.00
2019-02-27T04:07:32.734Z,0.00
2019-02-27T04:08:31.793Z,0.00
2019-02-27T04:09:31.795Z,0.00
2019-02-27T04:10:32.291Z,0.00
2019-02-27T04:11:31.761Z,0.00
2019-02-27T04:12:31.757Z,0.00
2019-02-27T04:13:31.751Z,0.00
2019-02-27T04:14:31.760Z,0.00
2019-02-27T04:15:31.720Z,0.00
2019-02-27T04:16:31.719Z,0.00
2019-02-27T04:17:31.719Z,0.00
2019-02-27T04:18:31.704Z,0.00
2019-02-27T04:19:31.692Z,0.00
2019-02-27T04:20:31.672Z,0.00
2019-02-27T04:21:31.656Z,0.00
2019-02-27T04:22:36.280Z,0.00
2019-02-27T04:23:32.636Z,0.00
2019-02-27T04:24:31.641Z,0.00
2019-02-27T04:25:32.285Z,0.00
2019-02-27T04:26:31.610Z,0.00
2019-02-27T04:27:31.596Z,0.00
2019-02-27T04:28:31.593Z,0.00
2019-02-27T04:29:31.599Z,0.00
2019-02-27T04:30:31.594Z,0.00
2019-02-27T04:31:31.551Z,0.00
2019-02-27T04:32:31.546Z,0.00
2019-02-27T04:33:31.536Z,0.00
2019-02-27T04:34:33.279Z,0.00
2019-02-27T04:35:31.511Z,0.00
2019-02-27T04:36:31.516Z,0.00
2019-02-27T04:37:31.493Z,0.00
2019-02-27T04:38:31.482Z,0.00
2019-02-27T04:39:31.487Z,0.00
2019-02-27T04:40:31.462Z,0.00
2019-02-27T04:41:31.449Z,0.00
2019-02-27T04:42:31.437Z,0.00
2019-02-27T04:43:32.291Z,0.00
2019-02-27T04:44:31.435Z,0.00
2019-02-27T04:45:31.422Z,0.00
2019-02-27T04:46:31.402Z,0.00
2019-02-27T04:47:31.388Z,0.00
2019-02-27T04:48:31.419Z,0.00
2019-02-27T04:49:31.388Z,0.00
2019-02-27T04:50:31.370Z,0.00
2019-02-27T04:51:31.343Z,0.00
2019-02-27T04:52:31.336Z,0.00
2019-02-27T04:53:31.942Z,0.00
2019-02-27T04:54:31.328Z,0.00
2019-02-27T04:55:31.314Z,0.00
2019-02-27T04:56:31.294Z,0.00
2019-02-27T04:57:33.767Z,0.00
2019-02-27T04:58:31.449Z,0.00
2019-02-27T04:59:31.273Z,0.00
2019-02-27T05:00:31.264Z,0.00
2019-02-27T05:01:31.248Z,0.00
2019-02-27T05:02:31.236Z,0.00
2019-02-27T05:03:31.218Z,0.00
2019-02-27T05:04:34.930Z,0.00
2019-02-27T05:05:31.202Z,0.00
2019-02-27T05:06:31.188Z,0.00
2019-02-27T05:07:31.178Z,0.00
2019-02-27T05:08:31.175Z,0.00
2019-02-27T05:09:31.373Z,0.00
2019-02-27T05:10:31.165Z,0.00
2019-02-27T05:11:31.140Z,0.00
2019-02-27T05:12:31.132Z,0.00
2019-02-27T05:13:31.114Z,0.00
2019-02-27T05:14:31.102Z,0.00
2019-02-27T05:15:31.106Z,0.00
2019-02-27T05:16:31.082Z,0.00
2019-02-27T05:17:31.088Z,0.00
2019-02-27T05:18:31.071Z,0.00
2019-02-27T05:19:31.057Z,0.00
2019-02-27T05:20:31.059Z,0.00
2019-02-27T05:21:31.040Z,0.00
2019-02-27T05:22:31.028Z,0.00
2019-02-27T05:23:33.439Z,0.00
2019-02-27T05:24:30.999Z,0.00
2019-02-27T05:25:31.017Z,0.00
2019-02-27T05:26:30.997Z,0.00
2019-02-27T05:27:30.973Z,0.00
2019-02-27T05:28:32.133Z,0.00
2019-02-27T05:29:30.946Z,0.00
2019-02-27T05:30:30.955Z,0.00
2019-02-27T05:31:30.939Z,0.00
2019-02-27T05:32:30.920Z,0.00
2019-02-27T05:33:35.714Z,0.00
2019-02-27T05:34:31.896Z,0.00
2019-02-27T05:35:30.901Z,0.00
2019-02-27T05:36:31.608Z,0.00
2019-02-27T05:37:30.869Z,0.00
2019-02-27T05:38:30.865Z,0.00
2019-02-27T05:39:30.852Z,0.00
2019-02-27T05:40:30.864Z,0.00
2019-02-27T05:41:33.186Z,0.00
2019-02-27T05:42:30.826Z,4.00
2019-02-27T05:43:30.812Z,4.00
2019-02-27T05:44:30.794Z,0.00
2019-02-27T05:45:31.332Z,4.00
2019-02-27T05:46:30.789Z,4.00
2019-02-27T05:47:30.769Z,4.00
2019-02-27T05:48:30.755Z,4.00
2019-02-27T05:49:30.751Z,8.00
2019-02-27T05:50:33.942Z,8.00
2019-02-27T05:51:30.746Z,8.00
2019-02-27T05:52:30.720Z,12.00
2019-02-27T05:53:30.734Z,12.00
2019-02-27T05:54:32.377Z,16.00
2019-02-27T05:55:30.679Z,20.00
2019-02-27T05:56:30.685Z,20.00
2019-02-27T05:57:31.407Z,24.00
2019-02-27T05:58:30.658Z,28.00
2019-02-27T05:59:30.640Z,36.00
2019-02-27T06:00:30.627Z,44.00
2019-02-27T06:01:30.644Z,52.00
2019-02-27T06:02:30.617Z,64.00
2019-02-27T06:03:30.599Z,72.00
2019-02-27T06:04:30.607Z,88.00
2019-02-27T06:05:30.574Z,104.00
2019-02-27T06:06:30.584Z,120.00
2019-02-27T06:07:30.553Z,140.00
2019-02-27T06:08:35.156Z,156.00
2019-02-27T06:09:31.535Z,180.00
2019-02-27T06:10:30.526Z,200.00
2019-02-27T06:11:33.021Z,228.00
2019-02-27T06:12:30.512Z,252.00
2019-02-27T06:13:30.492Z,280.00
2019-02-27T06:14:30.480Z,308.00
2019-02-27T06:15:30.489Z,340.00
2019-02-27T06:16:30.476Z,376.00
2019-02-27T06:17:30.452Z,412.00
2019-02-27T06:18:30.441Z,448.00
2019-02-27T06:19:30.605Z,488.00
2019-02-27T06:20:30.425Z,520.00
2019-02-27T06:21:30.427Z,556.00
2019-02-27T06:22:31.068Z,600.00
2019-02-27T06:23:30.388Z,640.00
2019-02-27T06:24:30.386Z,688.00
2019-02-27T06:25:30.371Z,732.00
2019-02-27T06:26:32.478Z,776.00
2019-02-27T06:27:31.661Z,824.00
2019-02-27T06:28:30.336Z,872.00
2019-02-27T06:29:30.330Z,920.00
2019-02-27T06:30:30.639Z,976.00
2019-02-27T06:31:30.323Z,1028.00
2019-02-27T06:32:30.295Z,1080.00
2019-02-27T06:33:30.287Z,1132.00
2019-02-27T06:34:30.276Z,1184.00
2019-02-27T06:35:33.532Z,1240.00
2019-02-27T06:36:30.272Z,1292.00
2019-02-27T06:37:30.245Z,1360.00
2019-02-27T06:38:30.236Z,1448.00
2019-02-27T06:39:34.161Z,1532.00
2019-02-27T06:40:30.212Z,1596.00
2019-02-27T06:41:30.218Z,1656.00
2019-02-27T06:42:30.287Z,1728.00
2019-02-27T06:43:30.186Z,1804.00
2019-02-27T06:44:30.175Z,1888.00
2019-02-27T06:45:30.161Z,1972.00
2019-02-27T06:46:30.163Z,2068.00
2019-02-27T06:47:30.141Z,2148.00
2019-02-27T06:48:30.129Z,2216.00
2019-02-27T06:49:30.144Z,2260.00
2019-02-27T06:50:30.118Z,2316.00
2019-02-27T06:51:30.130Z,2404.00
2019-02-27T06:52:30.096Z,2488.00
2019-02-27T06:53:30.101Z,2584.00
2019-02-27T06:54:30.066Z,2708.00
2019-02-27T06:55:30.056Z,2844.00
2019-02-27T06:56:30.058Z,2928.00
2019-02-27T06:57:30.052Z,3036.00
2019-02-27T06:58:30.026Z,3136.00
2019-02-27T06:59:30.029Z,3168.00
2019-02-27T07:00:30.005Z,3268.00
2019-02-27T07:01:30.038Z,3384.00
2019-02-27T07:02:30.002Z,3412.00
2019-02-27T07:03:32.797Z,3484.00
2019-02-27T07:04:29.961Z,3636.00
2019-02-27T07:05:29.965Z,3676.00
2019-02-27T07:06:29.948Z,3688.00
2019-02-27T07:07:31.269Z,3716.00
2019-02-27T07:08:29.920Z,3764.00
2019-02-27T07:09:29.914Z,3868.00
2019-02-27T07:10:29.900Z,4004.00
2019-02-27T07:11:29.890Z,4116.00
2019-02-27T07:12:29.890Z,4244.00
2019-02-27T07:13:30.056Z,4360.00
2019-02-27T07:14:29.865Z,4384.00
2019-02-27T07:15:29.859Z,4452.00
2019-02-27T07:16:29.839Z,4616.00
2019-02-27T07:17:31.810Z,4660.00
2019-02-27T07:18:29.822Z,4536.00
2019-02-27T07:19:29.813Z,4468.00
2019-02-27T07:20:29.800Z,4488.00
2019-02-27T07:21:32.795Z,4532.00
2019-02-27T07:22:29.790Z,4568.00
2019-02-27T07:23:29.764Z,4608.00
2019-02-27T07:24:30.520Z,4656.00
2019-02-27T07:25:29.747Z,4688.00
2019-02-27T07:26:29.733Z,4720.00
2019-02-27T07:27:31.264Z,4752.00
2019-02-27T07:28:29.711Z,4784.00
2019-02-27T07:29:29.702Z,4816.00
2019-02-27T07:30:29.695Z,4852.00
2019-02-27T07:31:29.690Z,4888.00
2019-02-27T07:32:31.576Z,4916.00
2019-02-27T07:33:29.685Z,4956.00
2019-02-27T07:34:29.649Z,4976.00
2019-02-27T07:35:29.646Z,5016.00
2019-02-27T07:36:29.628Z,5056.00
2019-02-27T07:37:29.630Z,5080.00
2019-02-27T07:38:29.610Z,5116.00
2019-02-27T07:39:32.591Z,5160.00
2019-02-27T07:40:29.587Z,5192.00
2019-02-27T07:41:29.575Z,5236.00
2019-02-27T07:42:31.909Z,5292.00
2019-02-27T07:43:29.554Z,5316.00
2019-02-27T07:44:29.605Z,5328.00
2019-02-27T07:45:29.533Z,5356.00
2019-02-27T07:46:29.525Z,5376.00
2019-02-27T07:47:29.523Z,5404.00
2019-02-27T07:48:29.500Z,5436.00
2019-02-27T07:49:30.855Z,5468.00
2019-02-27T07:50:29.483Z,5504.00
2019-02-27T07:51:29.476Z,5544.00
2019-02-27T07:52:32.270Z,5572.00
2019-02-27T07:53:29.455Z,5584.00
2019-02-27T07:54:29.694Z,5612.00
2019-02-27T07:55:29.427Z,5640.00
2019-02-27T07:56:29.420Z,5664.00
2019-02-27T07:57:29.419Z,5688.00
2019-02-27T07:58:33.716Z,5712.00
2019-02-27T07:59:30.386Z,5740.00
2019-02-27T08:00:29.385Z,5768.00
2019-02-27T08:01:29.367Z,5804.00
2019-02-27T08:02:29.379Z,5848.00
2019-02-27T08:03:29.348Z,5872.00
2019-02-27T08:04:29.336Z,5900.00
2019-02-27T08:05:29.324Z,5940.00
2019-02-27T08:06:29.309Z,5964.00
2019-02-27T08:07:29.302Z,5984.00
2019-02-27T08:08:29.302Z,6004.00
2019-02-27T08:09:30.202Z,6036.00
2019-02-27T08:10:29.270Z,6076.00
2019-02-27T08:11:29.259Z,6100.00
2019-02-27T08:12:29.246Z,6132.00
2019-02-27T08:13:29.625Z,6164.00
2019-02-27T08:14:29.228Z,6208.00
2019-02-27T08:15:29.216Z,6244.00
2019-02-27T08:16:29.204Z,6276.00
2019-02-27T08:17:29.195Z,6312.00
2019-02-27T08:18:30.381Z,6356.00
2019-02-27T08:19:29.183Z,6416.00
2019-02-27T08:20:29.168Z,6468.00
2019-02-27T08:21:29.154Z,6512.00
2019-02-27T08:22:29.141Z,6544.00
2019-02-27T08:23:29.146Z,6592.00
2019-02-27T08:24:29.123Z,6652.00
2019-02-27T08:25:29.107Z,6720.00
2019-02-27T08:26:29.099Z,6788.00
2019-02-27T08:27:29.086Z,6848.00
2019-02-27T08:28:29.089Z,6928.00
2019-02-27T08:29:29.067Z,7032.00
2019-02-27T08:30:29.054Z,7140.00
2019-02-27T08:31:29.044Z,7288.00
2019-02-27T08:32:29.032Z,7600.00
2019-02-27T08:33:29.037Z,9896.00
2019-02-27T08:34:29.011Z,14400.00
2019-02-27T08:35:29.001Z,16736.00
2019-02-27T08:36:28.991Z,15936.00
2019-02-27T08:37:28.986Z,15680.00
2019-02-27T08:38:28.986Z,16192.00
2019-02-27T08:39:28.958Z,16064.00
2019-02-27T08:40:28.948Z,14688.00
2019-02-27T08:41:29.196Z,10144.00
2019-02-27T08:42:28.928Z,10560.00
2019-02-27T08:43:30.450Z,16992.00
2019-02-27T08:44:28.904Z,19680.00
2019-02-27T08:45:28.894Z,19552.00
2019-02-27T08:46:28.887Z,20832.00
2019-02-27T08:47:28.872Z,21504.00
2019-02-27T08:48:28.873Z,20864.00
2019-02-27T08:49:28.853Z,20032.00
2019-02-27T08:50:29.248Z,18688.00
2019-02-27T08:51:28.829Z,19296.00
2019-02-27T08:52:28.817Z,21056.00
2019-02-27T08:53:28.827Z,21152.00
2019-02-27T08:54:32.250Z,20192.00
2019-02-27T08:55:28.790Z,20320.00
2019-02-27T08:56:30.036Z,19744.00
2019-02-27T08:57:28.763Z,19872.00
2019-02-27T08:58:29.680Z,19744.00
2019-02-27T08:59:28.742Z,18912.00
2019-02-27T09:00:28.732Z,19296.00
2019-02-27T09:01:28.719Z,19936.00
2019-02-27T09:02:29.388Z,20352.00
2019-02-27T09:03:28.715Z,19808.00
2019-02-27T09:04:28.688Z,19680.00
2019-02-27T09:05:28.677Z,19872.00
2019-02-27T09:06:28.667Z,19680.00
2019-02-27T09:07:28.660Z,20480.00
2019-02-27T09:08:31.346Z,21088.00
2019-02-27T09:09:28.635Z,21600.00
2019-02-27T09:10:30.716Z,22112.00
2019-02-27T09:11:28.618Z,22336.00
2019-02-27T09:12:28.603Z,22176.00
2019-02-27T09:13:28.606Z,22688.00
2019-02-27T09:14:28.581Z,21888.00
2019-02-27T09:15:28.568Z,16896.00
2019-02-27T09:16:28.560Z,11220.00
2019-02-27T09:17:28.548Z,9868.00
2019-02-27T09:18:28.537Z,11508.00
2019-02-27T09:19:28.541Z,15904.00
2019-02-27T09:20:28.515Z,19648.00
2019-02-27T09:21:28.606Z,22560.00
2019-02-27T09:22:28.497Z,24064.00
2019-02-27T09:23:28.495Z,25856.00
2019-02-27T09:24:28.487Z,26944.00
2019-02-27T09:25:28.463Z,27840.00
2019-02-27T09:26:28.451Z,27360.00
2019-02-27T09:27:28.443Z,27936.00
2019-02-27T09:28:28.430Z,26880.00
2019-02-27T09:29:28.430Z,24160.00
2019-02-27T09:30:29.385Z,26304.00
2019-02-27T09:31:28.398Z,29536.00
2019-02-27T09:32:28.393Z,30496.00
2019-02-27T09:33:28.374Z,31424.00
2019-02-27T09:34:28.404Z,31104.00
2019-02-27T09:35:32.267Z,31392.00
2019-02-27T09:36:29.341Z,32640.00
2019-02-27T09:37:28.333Z,32160.00
2019-02-27T09:38:28.325Z,31808.00
2019-02-27T09:39:31.175Z,31712.00
2019-02-27T09:40:29.618Z,32704.00
2019-02-27T09:41:28.298Z,33984.00
2019-02-27T09:42:28.279Z,34720.00
2019-02-27T09:43:28.269Z,34496.00
2019-02-27T09:44:28.268Z,24832.00
2019-02-27T09:45:28.248Z,12760.00
2019-02-27T09:46:28.242Z,24192.00
2019-02-27T09:47:28.224Z,35712.00
2019-02-27T09:48:28.216Z,34688.00
2019-02-27T09:49:28.226Z,34880.00
2019-02-27T09:50:28.200Z,33568.00
2019-02-27T09:51:28.183Z,34240.00
2019-02-27T09:52:30.190Z,36704.00
2019-02-27T09:53:28.161Z,37760.00
2019-02-27T09:54:28.165Z,36992.00
2019-02-27T09:55:28.147Z,37056.00
2019-02-27T09:56:29.272Z,35968.00
2019-02-27T09:57:28.121Z,35968.00
2019-02-27T09:58:28.108Z,37376.00
2019-02-27T09:59:28.108Z,35904.00
2019-02-27T10:00:28.085Z,35232.00
2019-02-27T10:01:29.238Z,35072.00
2019-02-27T10:02:28.068Z,35232.00
2019-02-27T10:03:28.053Z,35808.00
2019-02-27T10:04:28.810Z,36032.00
2019-02-27T10:05:28.032Z,36768.00
2019-02-27T10:06:28.025Z,35584.00
2019-02-27T10:07:28.011Z,35968.00
2019-02-27T10:08:28.000Z,38272.00
2019-02-27T10:09:28.008Z,35584.00
2019-02-27T10:10:27.980Z,21152.00
2019-02-27T10:11:27.968Z,17600.00
2019-02-27T10:12:27.959Z,32672.00
2019-02-27T10:13:27.946Z,37568.00
2019-02-27T10:14:27.949Z,37216.00
2019-02-27T10:15:27.926Z,35520.00
2019-02-27T10:16:27.914Z,34080.00
2019-02-27T10:17:28.623Z,36320.00
2019-02-27T10:18:27.895Z,37472.00
2019-02-27T10:19:27.895Z,39104.00
2019-02-27T10:20:27.873Z,39488.00
2019-02-27T10:21:27.861Z,37728.00
2019-02-27T10:22:27.851Z,36960.00
2019-02-27T10:23:30.433Z,37216.00
2019-02-27T10:24:27.839Z,37088.00
2019-02-27T10:25:27.817Z,37152.00
2019-02-27T10:26:27.809Z,39744.00
2019-02-27T10:27:28.711Z,37536.00
2019-02-27T10:28:27.789Z,31456.00
2019-02-27T10:29:27.788Z,22080.00
2019-02-27T10:30:27.765Z,16000.00
2019-02-27T10:31:27.751Z,28992.00
2019-02-27T10:32:27.746Z,40192.00
2019-02-27T10:33:27.731Z,40768.00
2019-02-27T10:34:27.721Z,40416.00
2019-02-27T10:35:29.501Z,38464.00
2019-02-27T10:36:27.700Z,39648.00
2019-02-27T10:37:27.704Z,42656.00
2019-02-27T10:38:27.677Z,41344.00
2019-02-27T10:39:27.666Z,42528.00
2019-02-27T10:40:27.669Z,43872.00
2019-02-27T10:41:27.645Z,43072.00
2019-02-27T10:42:27.640Z,42784.00
2019-02-27T10:43:27.624Z,43264.00
2019-02-27T10:44:27.617Z,45088.00
2019-02-27T10:45:27.616Z,44544.00
2019-02-27T10:46:27.593Z,33152.00
2019-02-27T10:47:27.586Z,16896.00
2019-02-27T10:48:27.579Z,14460.00
2019-02-27T10:49:27.560Z,15336.00
2019-02-27T10:50:27.562Z,26016.00
2019-02-27T10:51:27.541Z,37088.00
2019-02-27T10:52:27.534Z,44736.00
2019-02-27T10:53:28.000Z,46848.00
2019-02-27T10:54:27.509Z,44640.00
2019-02-27T10:55:27.510Z,41344.00
2019-02-27T10:56:27.489Z,39520.00
2019-02-27T10:57:31.581Z,34752.00
2019-02-27T10:58:27.465Z,19968.00
2019-02-27T10:59:27.455Z,28000.00
2019-02-27T11:00:27.454Z,37056.00
2019-02-27T11:01:27.434Z,38688.00
2019-02-27T11:02:27.422Z,40896.00
2019-02-27T11:03:27.467Z,44672.00
2019-02-27T11:04:27.403Z,47520.00
2019-02-27T11:05:27.401Z,48992.00
2019-02-27T11:06:33.718Z,35232.00
2019-02-27T11:07:28.367Z,24224.00
2019-02-27T11:08:29.595Z,41888.00
2019-02-27T11:09:27.348Z,49792.00
2019-02-27T11:10:27.349Z,49568.00
2019-02-27T11:11:27.326Z,49536.00
2019-02-27T11:12:29.417Z,50496.00
2019-02-27T11:13:27.312Z,40672.00
2019-02-27T11:14:31.764Z,26560.00
2019-02-27T11:15:28.296Z,41024.00
2019-02-27T11:16:27.958Z,51392.00
2019-02-27T11:17:27.263Z,51744.00
2019-02-27T11:18:27.257Z,52064.00
2019-02-27T11:19:27.242Z,52032.00
2019-02-27T11:20:27.242Z,51392.00
2019-02-27T11:21:27.221Z,48800.00
2019-02-27T11:22:31.441Z,30592.00
2019-02-27T11:23:27.201Z,22752.00
2019-02-27T11:24:27.190Z,22752.00
2019-02-27T11:25:27.190Z,30464.00
2019-02-27T11:26:27.172Z,45472.00
2019-02-27T11:27:27.161Z,37248.00
2019-02-27T11:28:27.154Z,30208.00
2019-02-27T11:29:27.148Z,46816.00
2019-02-27T11:30:27.137Z,46976.00
2019-02-27T11:31:27.116Z,39136.00
2019-02-27T11:32:27.106Z,29088.00
2019-02-27T11:33:27.097Z,43776.00
2019-02-27T11:34:27.085Z,51008.00
2019-02-27T11:35:27.083Z,50464.00
2019-02-27T11:36:27.063Z,49536.00
2019-02-27T11:37:27.055Z,33408.00
2019-02-27T11:38:27.041Z,33664.00
2019-02-27T11:39:27.034Z,50464.00
2019-02-27T11:40:27.036Z,50592.00
2019-02-27T11:41:27.008Z,42336.00
2019-02-27T11:42:28.918Z,26144.00
2019-02-27T11:43:26.989Z,20576.00
2019-02-27T11:44:26.977Z,18592.00
2019-02-27T11:45:26.999Z,31328.00
2019-02-27T11:46:26.955Z,43648.00
2019-02-27T11:47:26.945Z,26848.00
2019-02-27T11:48:26.934Z,10652.00
2019-02-27T11:49:26.924Z,15028.00
2019-02-27T11:50:26.914Z,16672.00
2019-02-27T11:51:27.970Z,26656.00
2019-02-27T11:52:28.633Z,30048.00
2019-02-27T11:53:26.881Z,31808.00
2019-02-27T11:54:26.872Z,46304.00
2019-02-27T11:55:26.862Z,42208.00
2019-02-27T11:56:26.865Z,36384.00
2019-02-27T11:57:27.312Z,44000.00
2019-02-27T11:58:26.831Z,49216.00
2019-02-27T11:59:26.821Z,48512.00
2019-02-27T12:00:26.809Z,48320.00
2019-02-27T12:01:26.809Z,48160.00
2019-02-27T12:02:29.758Z,48096.00
2019-02-27T12:03:27.781Z,47360.00
2019-02-27T12:04:26.767Z,47072.00
2019-02-27T12:05:30.298Z,47360.00
2019-02-27T12:06:27.757Z,47136.00
2019-02-27T12:07:26.733Z,46752.00
2019-02-27T12:08:26.910Z,36352.00
2019-02-27T12:09:26.713Z,22976.00
2019-02-27T12:10:26.702Z,35776.00
2019-02-27T12:11:26.705Z,50368.00
2019-02-27T12:12:26.681Z,52384.00
2019-02-27T12:13:26.671Z,51104.00
2019-02-27T12:14:26.661Z,51904.00
2019-02-27T12:15:27.298Z,50016.00
2019-02-27T12:16:26.651Z,48768.00
2019-02-27T12:17:26.631Z,48512.00
2019-02-27T12:18:26.620Z,48448.00
2019-02-27T12:19:26.608Z,48608.00
2019-02-27T12:20:26.599Z,35264.00
2019-02-27T12:21:26.601Z,34304.00
2019-02-27T12:22:26.579Z,47264.00
2019-02-27T12:23:26.566Z,51072.00
2019-02-27T12:24:26.556Z,51232.00
2019-02-27T12:25:29.033Z,52224.00
2019-02-27T12:26:26.545Z,52832.00
2019-02-27T12:27:47.881Z,53152.00
2019-02-27T12:28:27.512Z,51328.00
2019-02-27T12:29:27.243Z,48480.00
2019-02-27T12:30:26.499Z,46656.00
2019-02-27T12:31:26.495Z,50528.00
2019-02-27T12:32:26.470Z,55104.00